createdAt,value
2022-12-11T00:00:25.351Z,80.60
2022-12-11T00:02:01.323Z,80.90
2022-12-11T00:03:33.248Z,80.70
2022-12-11T00:05:06.417Z,80.60
2022-12-11T00:06:39.834Z,80.60
2022-12-11T00:08:16.287Z,80.50
2022-12-11T00:09:51.845Z,80.50
2022-12-11T00:11:28.325Z,80.50
2022-12-11T00:13:01.477Z,80.60
2022-12-11T00:14:36.942Z,80.70
2022-12-11T00:16:13.204Z,80.90
2022-12-11T00:17:46.370Z,80.60
2022-12-11T00:19:21.501Z,80.90
2022-12-11T00:20:54.007Z,80.50
2022-12-11T00:22:26.481Z,80.60
2022-12-11T00:23:58.814Z,80.70
2022-12-11T00:25:31.510Z,80.80
2022-12-11T00:27:03.325Z,80.80
2022-12-11T00:28:35.627Z,80.70
2022-12-11T00:30:09.466Z,80.60
2022-12-11T00:31:50.558Z,80.50
2022-12-11T00:33:22.986Z,80.50
2022-12-11T00:34:55.130Z,80.90
2022-12-11T00:36:29.418Z,80.80
2022-12-11T00:38:02.390Z,80.80
2022-12-11T00:39:37.539Z,80.70
2022-12-11T00:41:13.635Z,80.80
2022-12-11T00:42:49.531Z,80.70
2022-12-11T00:44:25.443Z,81.10
2022-12-11T00:46:05.755Z,80.70
2022-12-11T00:47:38.000Z,80.90
2022-12-11T00:49:16.787Z,81.00
2022-12-11T00:50:49.167Z,80.70
2022-12-11T00:52:21.705Z,80.90
2022-12-11T00:53:54.241Z,80.70
2022-12-11T00:55:29.040Z,81.00
2022-12-11T00:57:01.387Z,81.00
2022-12-11T00:58:36.670Z,80.80
2022-12-11T01:00:14.873Z,80.70
2022-12-11T01:01:48.124Z,80.70
2022-12-11T01:03:20.597Z,80.90
2022-12-11T01:04:52.561Z,80.80
2022-12-11T01:06:29.439Z,80.80
2022-12-11T01:08:04.984Z,81.10
2022-12-11T01:09:55.817Z,80.90
2022-12-11T01:11:28.550Z,81.20
2022-12-11T01:13:06.436Z,81.00
2022-12-11T01:14:42.798Z,80.90
2022-12-11T01:16:28.118Z,80.90
2022-12-11T01:18:05.092Z,80.90
2022-12-11T01:19:37.529Z,80.80
2022-12-11T01:21:15.009Z,80.90
2022-12-11T01:22:47.429Z,80.80
2022-12-11T01:24:30.436Z,80.90
2022-12-11T01:26:14.769Z,81.10
2022-12-11T01:27:46.861Z,80.70
2022-12-11T01:29:18.819Z,81.00
2022-12-11T01:30:51.037Z,81.10
2022-12-11T01:32:23.267Z,81.00
2022-12-11T01:33:55.761Z,81.00
2022-12-11T01:35:27.769Z,80.90
2022-12-11T01:37:00.255Z,81.10
2022-12-11T01:38:34.533Z,81.00
2022-12-11T01:40:25.351Z,81.00
2022-12-11T01:42:02.039Z,80.90
2022-12-11T01:43:34.943Z,81.00
2022-12-11T01:45:30.709Z,80.80
2022-12-11T01:47:03.416Z,80.70
2022-12-11T01:48:41.986Z,80.80
2022-12-11T01:50:18.889Z,80.70
2022-12-11T01:52:23.097Z,81.00
2022-12-11T01:54:04.672Z,80.90
2022-12-11T01:55:39.477Z,81.20
2022-12-11T01:57:13.779Z,81.00
2022-12-11T01:59:00.809Z,80.90
2022-12-11T02:00:32.938Z,80.90
2022-12-11T02:02:26.438Z,81.20
2022-12-11T02:03:58.709Z,81.00
2022-12-11T02:05:30.313Z,81.10
2022-12-11T02:07:03.537Z,81.00
2022-12-11T02:08:35.205Z,80.90
2022-12-11T02:10:08.286Z,81.00
2022-12-11T02:11:55.245Z,80.90
2022-12-11T02:13:53.816Z,81.10
2022-12-11T02:15:37.794Z,81.10
2022-12-11T02:17:25.861Z,81.10
2022-12-11T02:19:10.011Z,81.10
2022-12-11T02:20:58.565Z,80.90
2022-12-11T02:22:42.071Z,81.10
2022-12-11T02:24:49.731Z,80.60
2022-12-11T02:26:24.305Z,80.90
2022-12-11T02:28:14.903Z,81.10
2022-12-11T02:30:07.883Z,81.00
2022-12-11T02:31:47.735Z,80.80
2022-12-11T02:33:26.008Z,81.00
2022-12-11T02:35:05.429Z,81.00
2022-12-11T02:36:41.868Z,81.10
2022-12-11T02:38:22.533Z,81.00
2022-12-11T02:39:56.036Z,81.10
2022-12-11T02:41:29.479Z,81.00
2022-12-11T02:43:05.664Z,80.70
2022-12-11T02:44:39.901Z,81.20
2022-12-11T02:46:13.582Z,81.00
2022-12-11T02:47:47.871Z,81.00
2022-12-11T02:49:21.394Z,81.00
2022-12-11T02:50:57.621Z,81.10
2022-12-11T02:52:32.680Z,81.00
2022-12-11T02:54:08.624Z,81.10
2022-12-11T02:55:41.764Z,81.10
2022-12-11T02:57:33.412Z,81.10
2022-12-11T02:59:12.872Z,81.30
2022-12-11T03:00:46.205Z,80.90
2022-12-11T03:02:18.782Z,80.90
2022-12-11T03:03:50.554Z,81.00
2022-12-11T03:05:22.286Z,81.20
2022-12-11T03:07:00.512Z,81.30
2022-12-11T03:08:32.529Z,80.80
2022-12-11T03:10:07.095Z,81.20
2022-12-11T03:11:38.761Z,80.80
2022-12-11T03:13:12.326Z,81.20
2022-12-11T03:14:44.090Z,81.10
2022-12-11T03:16:33.774Z,81.20
2022-12-11T03:18:19.007Z,80.90
2022-12-11T03:20:13.405Z,81.20
2022-12-11T03:22:09.802Z,81.00
2022-12-11T03:23:45.292Z,81.10
2022-12-11T03:25:20.072Z,81.00
2022-12-11T03:27:11.352Z,81.10
2022-12-11T03:28:56.177Z,81.20
2022-12-11T03:30:31.112Z,80.90
2022-12-11T03:32:19.743Z,81.00
2022-12-11T03:33:56.066Z,81.10
2022-12-11T03:35:47.559Z,80.90
2022-12-11T03:37:20.081Z,80.70
2022-12-11T03:38:56.425Z,81.20
2022-12-11T03:40:30.893Z,81.00
2022-12-11T03:42:06.377Z,80.80
2022-12-11T03:43:40.531Z,80.60
2022-12-11T03:45:14.233Z,81.20
2022-12-11T03:46:48.151Z,81.00
2022-12-11T03:48:21.802Z,81.10
2022-12-11T03:49:54.377Z,81.10
2022-12-11T03:51:26.851Z,81.20
2022-12-11T03:53:00.391Z,80.80
2022-12-11T03:54:33.727Z,81.00
2022-12-11T03:56:08.535Z,81.00
2022-12-11T03:57:40.823Z,81.00
2022-12-11T03:59:12.793Z,80.90
2022-12-11T04:00:44.504Z,80.90
2022-12-11T04:02:16.224Z,81.10
2022-12-11T04:03:47.836Z,80.70
2022-12-11T04:05:19.459Z,81.00
2022-12-11T04:06:51.357Z,81.20
2022-12-11T04:08:24.138Z,81.00
2022-12-11T04:09:55.795Z,81.10
2022-12-11T04:11:36.190Z,81.00
2022-12-11T04:13:09.487Z,81.00
2022-12-11T04:15:00.523Z,81.00
2022-12-11T04:16:32.179Z,80.90
2022-12-11T04:18:22.807Z,80.90
2022-12-11T04:20:13.312Z,80.90
2022-12-11T04:22:03.809Z,80.60
2022-12-11T04:23:54.328Z,81.10
2022-12-11T04:25:25.946Z,81.10
2022-12-11T04:26:57.559Z,80.90
2022-12-11T04:28:29.200Z,80.90
2022-12-11T04:30:00.880Z,81.00
2022-12-11T04:31:32.812Z,80.90
2022-12-11T04:33:04.843Z,81.00
2022-12-11T04:34:36.664Z,81.00
2022-12-11T04:36:09.968Z,81.10
2022-12-11T04:37:41.769Z,80.90
2022-12-11T04:39:13.487Z,80.80
2022-12-11T04:40:45.091Z,81.20
2022-12-11T04:42:16.726Z,81.00
2022-12-11T04:43:48.436Z,81.20
2022-12-11T04:45:20.079Z,80.80
2022-12-11T04:46:51.775Z,81.30
2022-12-11T04:48:23.405Z,81.20
2022-12-11T04:49:55.040Z,81.30
2022-12-11T04:51:28.208Z,81.00
2022-12-11T04:52:59.832Z,81.20
2022-12-11T04:54:32.182Z,81.20
2022-12-11T04:56:09.317Z,81.20
2022-12-11T04:57:41.305Z,81.20
2022-12-11T04:59:12.967Z,80.70
2022-12-11T05:00:44.649Z,81.10
2022-12-11T05:02:17.060Z,81.10
2022-12-11T05:03:49.003Z,81.20
2022-12-11T05:05:20.625Z,81.30
2022-12-11T05:06:52.312Z,81.10
2022-12-11T05:08:23.970Z,81.00
2022-12-11T05:09:55.602Z,80.80
2022-12-11T05:11:28.070Z,81.10
2022-12-11T05:12:59.765Z,81.20
2022-12-11T05:14:32.324Z,81.40
2022-12-11T05:16:05.998Z,81.20
2022-12-11T05:17:37.854Z,81.10
2022-12-11T05:19:09.711Z,81.10
2022-12-11T05:20:41.341Z,81.10
2022-12-11T05:22:12.939Z,81.00
2022-12-11T05:23:44.604Z,81.30
2022-12-11T05:25:16.318Z,81.20
2022-12-11T05:26:47.985Z,81.10
2022-12-11T05:28:19.678Z,81.20
2022-12-11T05:29:54.858Z,81.10
2022-12-11T05:31:30.859Z,80.80
2022-12-11T05:33:02.520Z,81.00
2022-12-11T05:34:34.221Z,81.00
2022-12-11T05:36:07.020Z,81.10
2022-12-11T05:37:38.664Z,81.20
2022-12-11T05:39:11.846Z,81.20
2022-12-11T05:40:43.581Z,81.10
2022-12-11T05:42:15.247Z,81.00
2022-12-11T05:43:47.054Z,81.00
2022-12-11T05:45:18.724Z,81.00
2022-12-11T05:46:50.421Z,81.00
2022-12-11T05:48:22.174Z,81.10
2022-12-11T05:49:53.803Z,81.20
2022-12-11T05:51:26.302Z,81.00
2022-12-11T05:52:57.926Z,81.20
2022-12-11T05:54:29.547Z,81.00
2022-12-11T05:56:06.819Z,81.20
2022-12-11T05:57:38.432Z,81.10
2022-12-11T05:59:10.231Z,81.00
2022-12-11T06:00:42.876Z,81.10
2022-12-11T06:02:14.691Z,81.20
2022-12-11T06:03:46.763Z,81.00
2022-12-11T06:05:18.448Z,81.10
2022-12-11T06:06:50.099Z,81.00
2022-12-11T06:08:21.800Z,81.00
2022-12-11T06:09:53.815Z,81.10
2022-12-11T06:11:28.120Z,81.10
2022-12-11T06:12:59.832Z,81.00
2022-12-11T06:14:31.519Z,80.90
2022-12-11T06:16:05.271Z,80.80
2022-12-11T06:17:36.948Z,81.10
2022-12-11T06:19:18.307Z,80.90
2022-12-11T06:20:49.945Z,81.10
2022-12-11T06:22:22.293Z,81.20
2022-12-11T06:23:55.708Z,81.10
2022-12-11T06:25:31.248Z,81.10
2022-12-11T06:27:02.921Z,81.10
2022-12-11T06:28:34.686Z,81.00
2022-12-11T06:30:07.026Z,81.00
2022-12-11T06:31:38.769Z,80.90
2022-12-11T06:33:10.502Z,81.00
2022-12-11T06:34:42.166Z,81.10
2022-12-11T06:36:19.528Z,81.00
2022-12-11T06:37:51.146Z,80.80
2022-12-11T06:39:22.837Z,81.00
2022-12-11T06:40:56.484Z,80.90
2022-12-11T06:42:30.561Z,81.20
2022-12-11T06:44:02.217Z,80.90
2022-12-11T06:45:33.900Z,81.10
2022-12-11T06:47:05.642Z,81.20
2022-12-11T06:48:37.881Z,81.10
2022-12-11T06:50:09.897Z,81.00
2022-12-11T06:51:41.553Z,81.00
2022-12-11T06:53:15.137Z,80.90
2022-12-11T06:54:46.807Z,80.80
2022-12-11T06:56:18.780Z,81.00
2022-12-11T06:57:50.442Z,81.00
2022-12-11T06:59:22.085Z,80.90
2022-12-11T07:00:53.727Z,80.90
2022-12-11T07:02:25.431Z,80.90
2022-12-11T07:03:59.003Z,80.80
2022-12-11T07:05:31.581Z,80.90
2022-12-11T07:07:03.219Z,81.10
2022-12-11T07:08:34.869Z,80.90
2022-12-11T07:10:08.599Z,81.00
2022-12-11T07:11:40.418Z,81.00
2022-12-11T07:13:12.038Z,81.00
2022-12-11T07:14:43.745Z,80.90
2022-12-11T07:16:16.714Z,81.10
2022-12-11T07:17:48.416Z,80.80
2022-12-11T07:19:20.037Z,80.90
2022-12-11T07:20:51.657Z,81.00
2022-12-11T07:22:23.339Z,80.90
2022-12-11T07:23:54.956Z,81.10
2022-12-11T07:25:26.590Z,81.00
2022-12-11T07:26:58.488Z,81.10
2022-12-11T07:28:30.156Z,81.10
2022-12-11T07:30:01.776Z,80.90
2022-12-11T07:31:33.571Z,81.20
2022-12-11T07:33:05.696Z,80.70
2022-12-11T07:34:37.524Z,80.80
2022-12-11T07:36:11.526Z,81.00
2022-12-11T07:37:43.360Z,80.70
2022-12-11T07:39:14.992Z,80.80
2022-12-11T07:40:46.682Z,80.60
2022-12-11T07:42:18.337Z,81.10
2022-12-11T07:43:50.444Z,80.40
2022-12-11T07:45:22.068Z,80.60
2022-12-11T07:46:53.712Z,80.60
2022-12-11T07:48:25.409Z,80.40
2022-12-11T07:49:57.014Z,80.30
2022-12-11T07:51:35.322Z,80.70
2022-12-11T07:53:07.611Z,80.10
2022-12-11T07:54:39.306Z,80.30
2022-12-11T07:56:11.760Z,79.90
2022-12-11T07:57:43.459Z,80.10
2022-12-11T07:59:16.501Z,79.70
2022-12-11T08:00:49.428Z,80.10
2022-12-11T08:02:24.686Z,80.00
2022-12-11T08:03:56.924Z,80.00
2022-12-11T08:05:28.909Z,79.90
2022-12-11T08:07:00.565Z,79.60
2022-12-11T08:08:32.414Z,79.90
2022-12-11T08:10:05.262Z,79.70
2022-12-11T08:11:39.704Z,79.40
2022-12-11T08:13:12.769Z,79.80
2022-12-11T08:14:44.515Z,80.10
2022-12-11T08:16:19.612Z,80.00
2022-12-11T08:17:53.409Z,79.30
2022-12-11T08:19:25.102Z,79.20
2022-12-11T08:20:56.707Z,79.80
2022-12-11T08:22:28.353Z,79.90
2022-12-11T08:24:00.008Z,79.70
2022-12-11T08:25:31.692Z,79.70
2022-12-11T08:27:03.380Z,79.30
2022-12-11T08:28:35.173Z,79.70
2022-12-11T08:30:07.470Z,79.50
2022-12-11T08:31:40.693Z,79.70
2022-12-11T08:33:12.342Z,79.50
2022-12-11T08:34:44.182Z,79.00
2022-12-11T08:36:18.478Z,79.30
2022-12-11T08:37:50.092Z,79.40
2022-12-11T08:39:21.734Z,78.90
2022-12-11T08:40:53.326Z,79.10
2022-12-11T08:42:25.038Z,79.30
2022-12-11T08:43:58.558Z,79.20
2022-12-11T08:45:30.216Z,78.60
2022-12-11T08:47:01.823Z,79.00
2022-12-11T08:48:34.525Z,78.70
2022-12-11T08:50:06.415Z,78.90
2022-12-11T08:51:38.511Z,79.00
2022-12-11T08:53:10.133Z,78.60
2022-12-11T08:54:42.075Z,78.50
2022-12-11T08:56:19.103Z,78.50
2022-12-11T08:57:50.834Z,78.70
2022-12-11T08:59:22.587Z,78.90
2022-12-11T09:00:54.298Z,78.70
2022-12-11T09:02:26.583Z,78.00
2022-12-11T09:03:58.710Z,78.60
2022-12-11T09:05:30.887Z,78.60
2022-12-11T09:07:02.682Z,78.90
2022-12-11T09:08:35.246Z,78.50
2022-12-11T09:10:08.522Z,78.70
2022-12-11T09:11:40.970Z,78.70
2022-12-11T09:13:12.875Z,78.90
2022-12-11T09:14:44.805Z,78.40
2022-12-11T09:16:19.018Z,78.90
2022-12-11T09:17:53.653Z,78.80
2022-12-11T09:19:31.900Z,78.60
2022-12-11T09:21:13.791Z,78.70
2022-12-11T09:22:45.830Z,78.50
2022-12-11T09:24:18.766Z,78.80
2022-12-11T09:25:50.447Z,78.80
2022-12-11T09:27:22.158Z,79.00
2022-12-11T09:28:54.820Z,78.40
2022-12-11T09:30:26.536Z,78.70
2022-12-11T09:31:58.429Z,78.90
2022-12-11T09:33:30.122Z,79.00
2022-12-11T09:35:01.819Z,79.00
2022-12-11T09:36:37.179Z,78.50
2022-12-11T09:38:09.721Z,78.80
2022-12-11T09:39:41.687Z,78.50
2022-12-11T09:41:23.217Z,78.90
2022-12-11T09:43:34.435Z,78.80
2022-12-11T09:45:13.804Z,78.70
2022-12-11T09:46:46.814Z,79.00
2022-12-11T09:48:24.155Z,78.70
2022-12-11T09:50:03.656Z,78.60
2022-12-11T09:51:44.121Z,78.30
2022-12-11T09:53:36.824Z,78.70
2022-12-11T09:55:24.524Z,78.80
2022-12-11T09:57:24.185Z,78.90
2022-12-11T09:59:36.089Z,78.70
2022-12-11T10:01:13.182Z,78.60
2022-12-11T10:03:39.231Z,78.50
2022-12-11T10:05:27.095Z,78.60
2022-12-11T10:07:17.631Z,78.70
2022-12-11T10:08:52.616Z,78.80
2022-12-11T10:10:36.984Z,78.70
2022-12-11T10:12:27.806Z,78.30
2022-12-11T10:14:09.157Z,78.50
2022-12-11T10:15:53.675Z,78.50
2022-12-11T10:17:37.124Z,78.40
2022-12-11T10:19:22.154Z,78.40
2022-12-11T10:20:54.905Z,78.60
2022-12-11T10:22:31.582Z,78.50
2022-12-11T10:24:10.546Z,78.70
2022-12-11T10:25:59.142Z,78.40
2022-12-11T10:27:45.102Z,78.60
2022-12-11T10:29:22.381Z,78.70
2022-12-11T10:31:14.615Z,78.50
2022-12-11T10:33:14.363Z,78.30
2022-12-11T10:34:49.760Z,78.70
2022-12-11T10:36:32.850Z,78.30
2022-12-11T10:38:23.789Z,78.50
2022-12-11T10:39:58.624Z,78.60
2022-12-11T10:41:42.218Z,78.50
2022-12-11T10:43:14.422Z,78.40
2022-12-11T10:45:02.158Z,78.40
2022-12-11T10:46:34.248Z,78.30
2022-12-11T10:48:14.284Z,78.40
2022-12-11T10:49:58.433Z,78.20
2022-12-11T10:51:30.978Z,78.30
2022-12-11T10:53:02.814Z,78.40
2022-12-11T10:54:40.998Z,78.40
2022-12-11T10:56:13.989Z,78.50
2022-12-11T10:57:53.858Z,78.40
2022-12-11T10:59:33.086Z,78.40
2022-12-11T11:01:09.590Z,78.40
2022-12-11T11:02:45.501Z,78.40
2022-12-11T11:04:28.091Z,78.00
2022-12-11T11:06:27.686Z,78.40
2022-12-11T11:08:23.336Z,78.40
2022-12-11T11:10:12.803Z,78.10
2022-12-11T11:11:50.743Z,78.30
2022-12-11T11:13:28.258Z,78.50
2022-12-11T11:15:13.294Z,77.90
2022-12-11T11:16:48.434Z,78.20
2022-12-11T11:18:28.255Z,78.00
2022-12-11T11:20:14.393Z,77.90
2022-12-11T11:21:57.544Z,78.40
2022-12-11T11:23:30.795Z,78.30
2022-12-11T11:25:23.852Z,78.30
2022-12-11T11:27:13.091Z,78.00
2022-12-11T11:28:55.079Z,78.30
2022-12-11T11:30:30.718Z,78.00
2022-12-11T11:32:16.646Z,78.10
2022-12-11T11:33:57.328Z,78.20
2022-12-11T11:35:30.771Z,78.00
2022-12-11T11:37:06.546Z,78.10
2022-12-11T11:38:47.828Z,78.20
2022-12-11T11:40:25.841Z,78.20
2022-12-11T11:42:18.077Z,78.20
2022-12-11T11:43:56.945Z,78.20
2022-12-11T11:45:39.455Z,78.40
2022-12-11T11:47:17.473Z,78.30
2022-12-11T11:49:04.500Z,78.20
2022-12-11T11:50:45.476Z,78.30
2022-12-11T11:52:31.016Z,78.00
2022-12-11T11:54:29.349Z,78.20
2022-12-11T11:56:06.284Z,78.40
2022-12-11T11:58:07.887Z,78.10
2022-12-11T12:00:09.947Z,78.20
2022-12-11T12:01:45.075Z,78.10
2022-12-11T12:03:23.046Z,77.90
2022-12-11T12:04:55.007Z,78.10
2022-12-11T12:06:50.499Z,78.00
2022-12-11T12:08:44.594Z,78.00
2022-12-11T12:10:28.403Z,78.00
2022-12-11T12:12:27.446Z,77.80
2022-12-11T12:14:43.613Z,78.00
2022-12-11T12:16:50.525Z,78.00
2022-12-11T12:18:52.486Z,78.00
2022-12-11T12:20:48.638Z,77.90
2022-12-11T12:22:28.709Z,77.90
2022-12-11T12:24:29.118Z,78.00
2022-12-11T12:26:41.981Z,77.80
2022-12-11T12:28:34.403Z,78.00
2022-12-11T12:30:17.390Z,77.70
2022-12-11T12:32:29.647Z,78.00
2022-12-11T12:34:28.795Z,78.00
2022-12-11T12:36:31.863Z,77.90
2022-12-11T12:38:30.439Z,77.80
2022-12-11T12:40:17.157Z,78.00
2022-12-11T12:42:07.898Z,77.90
2022-12-11T12:44:05.035Z,77.90
2022-12-11T12:45:38.382Z,78.00
2022-12-11T12:47:18.742Z,77.90
2022-12-11T12:48:57.124Z,78.00
2022-12-11T12:50:37.693Z,77.80
2022-12-11T12:52:42.139Z,77.90
2022-12-11T12:54:19.965Z,77.70
2022-12-11T12:55:55.027Z,77.60
2022-12-11T12:57:27.519Z,77.30
2022-12-11T12:58:59.786Z,77.60
2022-12-11T13:00:35.890Z,77.60
2022-12-11T13:02:15.173Z,77.60
2022-12-11T13:04:07.340Z,77.70
2022-12-11T13:05:48.409Z,77.70
2022-12-11T13:07:29.362Z,77.50
2022-12-11T13:09:31.395Z,77.60
2022-12-11T13:11:15.308Z,77.20
2022-12-11T13:12:47.605Z,77.70
2022-12-11T13:14:19.449Z,77.60
2022-12-11T13:15:51.975Z,77.60
2022-12-11T13:17:39.634Z,77.00
2022-12-11T13:19:20.629Z,77.70
2022-12-11T13:20:53.277Z,77.70
2022-12-11T13:22:25.745Z,77.50
2022-12-11T13:24:17.093Z,77.40
2022-12-11T13:26:00.605Z,77.60
2022-12-11T13:27:35.493Z,77.60
2022-12-11T13:29:37.816Z,77.40
2022-12-11T13:31:16.259Z,77.50
2022-12-11T13:33:05.451Z,77.70
2022-12-11T13:34:41.043Z,77.70
2022-12-11T13:36:18.994Z,77.60
2022-12-11T13:38:12.054Z,77.40
2022-12-11T13:39:47.268Z,77.50
2022-12-11T13:41:20.477Z,77.50
2022-12-11T13:42:57.016Z,77.50
2022-12-11T13:44:39.533Z,77.30
2022-12-11T13:46:14.883Z,77.30
2022-12-11T13:47:48.135Z,77.30
2022-12-11T13:49:24.408Z,77.20
2022-12-11T13:50:57.792Z,77.40
2022-12-11T13:52:39.139Z,77.10
2022-12-11T13:54:18.399Z,77.40
2022-12-11T13:56:02.389Z,77.30
2022-12-11T13:57:34.801Z,77.40
2022-12-11T13:59:35.546Z,77.40
2022-12-11T14:01:26.558Z,77.40
2022-12-11T14:03:05.096Z,77.50
2022-12-11T14:04:41.781Z,77.50
2022-12-11T14:06:20.216Z,77.50
2022-12-11T14:07:55.684Z,77.40
2022-12-11T14:09:30.076Z,77.30
2022-12-11T14:11:03.268Z,77.30
2022-12-11T14:12:42.260Z,77.10
2022-12-11T14:14:45.590Z,77.30
2022-12-11T14:16:23.700Z,77.10
2022-12-11T14:18:00.457Z,77.10
2022-12-11T14:19:33.624Z,77.30
2022-12-11T14:21:08.298Z,77.40
2022-12-11T14:22:41.636Z,77.50
2022-12-11T14:24:15.540Z,77.40
2022-12-11T14:25:58.388Z,77.10
2022-12-11T14:27:32.661Z,77.00
2022-12-11T14:29:13.196Z,77.30
2022-12-11T14:31:01.747Z,77.30
2022-12-11T14:32:44.070Z,77.20
2022-12-11T14:34:25.531Z,77.20
2022-12-11T14:35:58.527Z,77.10
2022-12-11T14:37:32.558Z,77.10
2022-12-11T14:39:16.482Z,77.20
2022-12-11T14:40:53.685Z,77.20
2022-12-11T14:42:38.590Z,77.10
2022-12-11T14:44:19.470Z,76.80
2022-12-11T14:45:57.971Z,77.20
2022-12-11T14:47:38.138Z,77.20
2022-12-11T14:49:47.234Z,77.20
2022-12-11T14:51:20.520Z,77.20
2022-12-11T14:52:58.540Z,77.20
2022-12-11T14:54:40.984Z,77.10
2022-12-11T14:56:26.337Z,77.10
2022-12-11T14:58:21.757Z,76.60
2022-12-11T14:59:56.074Z,77.00
2022-12-11T15:01:34.032Z,77.00
2022-12-11T15:03:10.073Z,76.90
2022-12-11T15:04:50.154Z,77.10
2022-12-11T15:06:28.919Z,77.20
2022-12-11T15:08:02.335Z,77.10
2022-12-11T15:09:35.879Z,77.10
2022-12-11T15:11:13.342Z,77.00
2022-12-11T15:12:46.038Z,77.10
2022-12-11T15:14:21.698Z,76.90
2022-12-11T15:15:56.073Z,77.10
2022-12-11T15:17:28.915Z,76.90
2022-12-11T15:19:01.955Z,77.00
2022-12-11T15:20:33.891Z,77.20
2022-12-11T15:22:12.640Z,77.20
2022-12-11T15:23:55.370Z,77.10
2022-12-11T15:25:29.262Z,76.90
2022-12-11T15:27:01.600Z,77.10
2022-12-11T15:28:38.268Z,77.00
2022-12-11T15:30:21.069Z,77.20
2022-12-11T15:32:15.972Z,77.10
2022-12-11T15:33:50.679Z,77.10
2022-12-11T15:35:24.754Z,76.90
2022-12-11T15:36:56.687Z,76.70
2022-12-11T15:38:31.161Z,77.00
2022-12-11T15:40:07.993Z,77.00
2022-12-11T15:41:45.824Z,76.70
2022-12-11T15:43:18.388Z,77.10
2022-12-11T15:44:50.726Z,76.90
2022-12-11T15:46:23.030Z,77.10
2022-12-11T15:47:57.553Z,76.90
2022-12-11T15:49:30.983Z,76.90
2022-12-11T15:51:03.652Z,77.00
2022-12-11T15:52:36.892Z,76.90
2022-12-11T15:54:09.692Z,77.00
2022-12-11T15:55:41.607Z,77.00
2022-12-11T15:57:24.035Z,77.10
2022-12-11T15:59:04.428Z,77.10
2022-12-11T16:00:36.071Z,77.10
2022-12-11T16:02:13.939Z,76.90
2022-12-11T16:03:45.948Z,77.00
2022-12-11T16:05:17.647Z,77.00
2022-12-11T16:06:49.442Z,76.90
2022-12-11T16:08:26.335Z,77.10
2022-12-11T16:10:02.146Z,77.00
2022-12-11T16:11:35.498Z,77.00
2022-12-11T16:13:07.917Z,77.00
2022-12-11T16:14:45.163Z,76.90
2022-12-11T16:16:17.556Z,76.90
2022-12-11T16:17:58.982Z,76.70
2022-12-11T16:19:31.184Z,76.90
2022-12-11T16:21:05.596Z,77.00
2022-12-11T16:22:40.728Z,76.90
2022-12-11T16:24:12.753Z,76.80
2022-12-11T16:25:46.462Z,76.90
2022-12-11T16:27:22.931Z,77.10
2022-12-11T16:28:55.427Z,77.00
2022-12-11T16:30:30.367Z,77.00
2022-12-11T16:32:02.281Z,77.00
2022-12-11T16:33:34.528Z,76.90
2022-12-11T16:35:06.919Z,77.10
2022-12-11T16:36:38.694Z,77.10
2022-12-11T16:38:14.641Z,77.00
2022-12-11T16:39:46.959Z,76.80
2022-12-11T16:41:19.567Z,77.10
2022-12-11T16:42:52.266Z,77.00
2022-12-11T16:44:26.936Z,77.00
2022-12-11T16:46:02.433Z,76.90
2022-12-11T16:47:34.506Z,76.90
2022-12-11T16:49:06.396Z,76.90
2022-12-11T16:50:41.470Z,76.80
2022-12-11T16:52:16.424Z,76.80
2022-12-11T16:53:52.222Z,76.70
2022-12-11T16:55:25.186Z,77.00
2022-12-11T16:56:57.566Z,76.90
2022-12-11T16:58:35.653Z,76.90
2022-12-11T17:00:10.317Z,76.90
2022-12-11T17:01:44.788Z,76.90
2022-12-11T17:03:17.340Z,76.70
2022-12-11T17:04:53.621Z,76.60
2022-12-11T17:06:26.943Z,76.40
2022-12-11T17:07:58.895Z,76.50
2022-12-11T17:09:31.560Z,76.50
2022-12-11T17:11:08.320Z,76.60
2022-12-11T17:12:40.756Z,76.50
2022-12-11T17:14:14.084Z,76.60
2022-12-11T17:15:46.541Z,76.60
2022-12-11T17:17:18.585Z,76.50
2022-12-11T17:18:50.472Z,76.50
2022-12-11T17:20:22.258Z,76.50
2022-12-11T17:21:55.614Z,76.40
2022-12-11T17:23:27.899Z,76.40
2022-12-11T17:25:00.223Z,76.20
2022-12-11T17:26:34.255Z,76.20
2022-12-11T17:28:07.025Z,76.40
2022-12-11T17:29:39.072Z,76.40
2022-12-11T17:31:17.696Z,76.40
2022-12-11T17:32:53.305Z,76.30
2022-12-11T17:34:33.117Z,76.00
2022-12-11T17:36:08.807Z,76.20
2022-12-11T17:37:41.051Z,76.40
2022-12-11T17:39:13.976Z,76.30
2022-12-11T17:40:45.854Z,76.40
2022-12-11T17:42:18.101Z,76.40
2022-12-11T17:43:53.927Z,76.20
2022-12-11T17:45:27.040Z,76.40
2022-12-11T17:47:00.427Z,76.30
2022-12-11T17:48:33.782Z,76.30
2022-12-11T17:50:06.907Z,76.30
2022-12-11T17:51:38.994Z,76.20
2022-12-11T17:53:17.452Z,76.20
2022-12-11T17:54:52.042Z,76.30
2022-12-11T17:56:26.073Z,76.10
2022-12-11T17:57:58.415Z,76.10
2022-12-11T17:59:30.283Z,76.10
2022-12-11T18:01:08.224Z,76.20
2022-12-11T18:02:40.320Z,76.20
2022-12-11T18:04:13.002Z,76.00
2022-12-11T18:05:51.242Z,76.10
2022-12-11T18:07:25.219Z,75.90
2022-12-11T18:09:02.825Z,76.00
2022-12-11T18:10:38.888Z,76.00
2022-12-11T18:12:11.124Z,76.20
2022-12-11T18:13:45.341Z,76.10
2022-12-11T18:15:23.729Z,76.10
2022-12-11T18:16:58.696Z,76.10
2022-12-11T18:18:40.009Z,76.10
2022-12-11T18:20:17.206Z,76.00
2022-12-11T18:21:51.964Z,76.00
2022-12-11T18:23:24.339Z,76.00
2022-12-11T18:24:59.032Z,76.00
2022-12-11T18:26:31.208Z,76.10
2022-12-11T18:28:03.694Z,76.00
2022-12-11T18:29:35.531Z,76.10
2022-12-11T18:31:09.510Z,76.10
2022-12-11T18:32:42.972Z,76.10
2022-12-11T18:34:18.273Z,76.10
2022-12-11T18:35:51.853Z,76.10
2022-12-11T18:37:27.888Z,76.00
2022-12-11T18:39:00.900Z,76.00
2022-12-11T18:40:32.968Z,75.90
2022-12-11T18:42:31.847Z,76.00
2022-12-11T18:43:57.512Z,76.10
2022-12-11T18:45:30.449Z,76.00
2022-12-11T18:47:02.410Z,76.00
2022-12-11T18:48:35.608Z,75.90
2022-12-11T18:50:09.573Z,75.90
2022-12-11T18:51:43.971Z,75.80
2022-12-11T18:53:18.160Z,75.90
2022-12-11T18:54:52.556Z,75.80
2022-12-11T18:56:24.764Z,75.90
2022-12-11T18:57:57.077Z,76.00
2022-12-11T18:59:32.916Z,76.10
2022-12-11T19:01:21.732Z,76.00
2022-12-11T19:02:53.545Z,75.90
2022-12-11T19:04:25.696Z,75.90
2022-12-11T19:06:04.995Z,75.90
2022-12-11T19:07:36.992Z,75.90
2022-12-11T19:09:12.539Z,75.80
2022-12-11T19:10:50.148Z,75.60
2022-12-11T19:12:22.579Z,75.90
2022-12-11T19:14:02.411Z,76.00
2022-12-11T19:15:38.915Z,75.90
2022-12-11T19:17:11.860Z,75.90
2022-12-11T19:18:44.919Z,75.90
2022-12-11T19:20:47.342Z,75.90
2022-12-11T19:22:10.522Z,76.00
2022-12-11T19:23:43.666Z,75.70
2022-12-11T19:25:16.665Z,75.80
2022-12-11T19:26:49.753Z,75.90
2022-12-11T19:28:22.758Z,75.90
2022-12-11T19:29:54.786Z,75.80
2022-12-11T19:31:30.059Z,75.90
2022-12-11T19:33:02.147Z,75.90
2022-12-11T19:34:34.162Z,75.80
2022-12-11T19:36:10.035Z,75.90
2022-12-11T19:37:42.587Z,75.80
2022-12-11T19:39:15.658Z,75.80
2022-12-11T19:40:48.465Z,75.80
2022-12-11T19:42:21.564Z,75.80
2022-12-11T19:43:58.219Z,76.00
2022-12-11T19:45:30.040Z,76.00
2022-12-11T19:47:02.183Z,76.00
2022-12-11T19:48:37.376Z,76.10
2022-12-11T19:50:10.170Z,76.00
2022-12-11T19:51:45.695Z,76.00
2022-12-11T19:53:20.877Z,75.90
2022-12-11T19:54:53.974Z,76.00
2022-12-11T19:56:26.732Z,75.90
2022-12-11T19:58:01.963Z,76.00
2022-12-11T19:59:34.748Z,75.90
2022-12-11T20:01:07.725Z,75.90
2022-12-11T20:02:44.016Z,76.00
2022-12-11T20:04:20.213Z,75.90
2022-12-11T20:05:52.122Z,75.90
2022-12-11T20:07:30.511Z,75.80
2022-12-11T20:09:05.473Z,75.80
2022-12-11T20:10:40.387Z,75.80
2022-12-11T20:12:14.241Z,75.90
2022-12-11T20:13:58.424Z,75.80
2022-12-11T20:15:35.005Z,75.80
2022-12-11T20:17:14.273Z,75.80
2022-12-11T20:18:47.119Z,75.60
2022-12-11T20:20:19.470Z,76.00
2022-12-11T20:21:51.622Z,75.90
2022-12-11T20:23:26.531Z,75.80
2022-12-11T20:25:00.198Z,75.80
2022-12-11T20:26:35.943Z,76.00
2022-12-11T20:28:07.836Z,76.00
2022-12-11T20:29:41.818Z,75.90
2022-12-11T20:31:20.157Z,75.90
2022-12-11T20:32:52.870Z,76.00
2022-12-11T20:34:26.009Z,76.00
2022-12-11T20:35:58.015Z,76.00
2022-12-11T20:37:30.043Z,75.90
2022-12-11T20:39:02.925Z,75.80
2022-12-11T20:40:35.059Z,75.90
2022-12-11T20:42:10.167Z,76.00
2022-12-11T20:43:42.767Z,75.90
2022-12-11T20:45:14.791Z,75.90
2022-12-11T20:46:50.750Z,75.40